메인 페이지
METAR-TAF:

METAR-TAF

공항 :

Wheeler, 하와이, 미국

위도: 21-29N, 경도: 158-02W, 고도: 255m

현재 날씨관측

예보는 57분 전, 13:55시(UTC)에 발표되었습니다.
무풍
온도 21°C
습도 88%
기압 1018 hPa
시정: 16.1km
고도 3900ft 상공 흐림

METAR: PHHI 211355Z AUTO 00000KT 10SM OVC039 21/19 A3005 RMK AO2 SLP165 T02100187 $

시각: 04:52 (14:52 UTC)

예보

예보는 7 시간 52분 전, 07:00시(UTC)에 발표되었습니다.
예보 대상 시간: 21일 07시부터 22일 13시까지 (UTC)
5kt
시정 10km 이상
고도 2000ft 상공 구름 보통
고도 3000ft 상공 구름 많음
일시적
21일 07시부터 21일 13시까지 (UTC)
시정: 9000m
고도 2000ft 상공 구름 많음
고도 3000ft 상공 구름 많음
약한비
전환 중
21일 20시부터 21일 21시까지 (UTC)
10kt
시정 10km 이상
고도 2500ft 상공 구름 보통
고도 4000ft 상공 구름 많음
일시적
21일 22시부터 22일 04시까지 (UTC)
동북동12kt, 순간 최대 풍속 18kt
전환 중
22일 06시부터 22일 07시까지 (UTC)
동북동6kt
시정 10km 이상
고도 2000ft 상공 구름 많음
고도 3000ft 상공 구름 많음
일시적
22일 07시부터 22일 13시까지 (UTC)
시정: 8000m
고도 1400ft 상공 구름 많음
고도 2500ft 상공 구름 많음
약한비,

TAF: PHHI 210700Z 2107/2213 09005KT 9999 SCT020 BKN030 QNH3008INS TEMPO 2107/2113 9000 -RA BKN020 BKN030 BECMG 2120/2121 08010KT 9999 SCT025 BKN040 QNH3006INS TEMPO 2122/2204 07012G18KT BECMG 2206/2207 06006KT 9999 BKN020 BKN030 QNH3007INS TEMPO 2207/2213 8000 -RA BKN014 BKN025 TX27/2200Z TN19/2115Z

4,000개 이상의 공항 관측 자료 및 예보 (METAR 및 TAF 보고).

지도상에서 검색 가능한 기상관측소가 노란 점과 빨간 점으로 표시되어 있습니다.

기상관측소 명을 보려면 표시 위로 마우스를 이동하세요.

날씨 관측과 예보를 보려면 클릭하세요.

지도 변경 : 확대하려면 엑스 표시가 있는 녹색 버튼, 축소하려면 빼기 표시가 있는 녹색 버튼, 다음 페이지의 지도를 보려면 녹색 화살표를 클릭하세요.


METAR-TAF: